メインページ
METAR-TAF:

METAR-TAF

空港 :

Buffalo Narrows, マニトバ州, カナダ

緯度: 55-50N, 経度: 108-27W, 海抜: 434m

現時点の気象観測

当レポートは51分前の18:00(UTC)に作成
の風 11kt、最大19ktの突風を伴う、南東から南/南西の間で変化する
気温 24°C
湿度 36%
気圧 1011 hPa
視程: 24.1km
高度6500ftの雲はほとんどない

METAR: CYVT 181800Z 17011G19KT 130V200 15SM FEW065 24/08 A2984 RMK CU1 CU TR SLP109 DENSITY ALT 2900FT

時間: 13:51 (18:51 UTC)

予報

当レポートは13分前の18:38(UTC)に作成
予報は18日の 19時(UTC)から 19日の 04時(UTC)まで有効
の風 10kt、最大20ktの突風を伴う
視程: 10km
高度7000ftの雲は散在している
18日の 23時(UTC)から 19日の 02時(UTC)まで一時的に
高度7000ftの千切れ雲あり
19日の 0200時(UTC)から
の風 10kt
視程: 10km
高度8000ftの千切れ雲あり

TAF: CYVT 181838Z 1819/1904 17010G20KT P6SM SCT070 TEMPO 1823/1902 BKN070 FM190200 18010KT P6SM BKN080 RMK NXT FCST BY 190100Z

4,000以上の空港の気象観測と天気予報(METAR報とTAF報)

利用可能な観測所は地図上に黄色い丸と赤い丸で示す。

丸の上にカーソルを重ねると観測所名を参照できる。

次にクリックすると気象観測と天気予報を参照できる。

マップの切り替え:黒色「×」印の緑ボタンをクリックして拡大、「-」印の緑ボタンをクリックして縮小、緑色の三角印をクリックして隣りの地図に切り替え


METAR-TAF: